Time;durP1;ratioP1;P1;durP2;ratioP2;P2;SDS_P1;SDS_P2;PMS_P1;PMS_P2;Temp;Humidity;BMP_temperature;BMP_pressure;BME280_temperature;BME280_humidity;BME280_pressure;Samples;Min_cycle;Max_cycle;Signal;HPM_P1;HPM_P2
2023/08/22 00:00:15;;;;;;;7.65;5.93;;;;;;;29.29;38.28;99711.41;5091462;28;20035;-46
2023/08/22 00:02:40;;;;;;;6.63;5.63;;;;;;;29.13;38.51;99711.94;5091282;28;20025;-46
2023/08/22 00:05:07;;;;;;;7.75;5.80;;;;;;;29.08;38.87;99712.09;5091205;28;20053;-43
2023/08/22 00:07:33;;;;;;;6.65;5.50;;;;;;;29.06;38.67;99711.63;5091506;28;20024;-44
2023/08/22 00:09:58;;;;;;;6.63;5.38;;;;;;;29.06;38.52;99717.09;5091426;28;20499;-47
2023/08/22 00:12:24;;;;;;;6.60;5.47;;;;;;;29.04;38.67;99713.88;5091265;28;20008;-47
2023/08/22 00:14:50;;;;;;;7.03;5.55;;;;;;;29.00;38.77;99718.41;5091332;28;20028;-46
2023/08/22 00:17:16;;;;;;;7.63;5.38;;;;;;;28.71;38.97;99710.91;5091119;28;20107;-45
2023/08/22 00:19:42;;;;;;;9.10;5.70;;;;;;;28.64;39.15;99695.00;5091113;28;20162;-44
2023/08/22 00:22:07;;;;;;;6.25;5.30;;;;;;;28.82;39.00;99715.72;5091398;28;20016;-44
2023/08/22 00:24:32;;;;;;;7.30;6.20;;;;;;;28.71;39.19;99721.88;5091612;28;20031;-44
2023/08/22 00:26:58;;;;;;;11.80;6.18;;;;;;;28.23;40.13;99718.97;5091251;28;20456;-43
2023/08/22 00:29:24;;;;;;;9.65;6.63;;;;;;;28.22;40.39;99711.13;5091330;28;20111;-44
2023/08/22 00:31:50;;;;;;;9.57;6.47;;;;;;;28.07;40.65;99712.41;5091264;28;20024;-44
2023/08/22 00:34:15;;;;;;;9.75;6.60;;;;;;;27.85;41.19;99713.31;5091260;28;20457;-46
2023/08/22 00:36:40;;;;;;;6.97;6.28;;;;;;;27.78;41.18;99719.25;5091139;28;20035;-42
2023/08/22 00:39:06;;;;;;;8.50;6.28;;;;;;;27.85;40.81;99716.88;5090813;28;20109;-43
2023/08/22 00:41:32;;;;;;;7.75;6.03;;;;;;;27.95;40.55;99712.22;5091015;28;20024;-44
2023/08/22 00:43:59;;;;;;;6.63;5.82;;;;;;;27.92;40.58;99710.94;5090808;28;20499;-45
2023/08/22 00:46:29;;;;;;;6.47;5.78;;;;;;;27.50;41.46;99708.59;5090965;28;20035;-43
2023/08/22 00:48:55;;;;;;;6.55;5.57;;;;;;;27.35;41.59;99719.16;5090351;28;20046;-49
2023/08/22 00:51:21;;;;;;;8.95;5.80;;;;;;;27.41;41.48;99720.63;5090765;28;20020;-47
2023/08/22 00:53:47;;;;;;;9.27;5.80;;;;;;;27.20;41.86;99723.88;5090821;28;20106;-45
2023/08/22 00:56:12;;;;;;;8.40;5.50;;;;;;;27.49;41.26;99725.28;5090501;28;20019;-46
2023/08/22 00:58:38;;;;;;;7.43;5.57;;;;;;;27.78;40.54;99724.72;5090540;28;20051;-44
2023/08/22 01:01:04;;;;;;;7.80;5.75;;;;;;;27.76;40.48;99720.69;5090873;28;20034;-43
2023/08/22 01:03:30;;;;;;;7.18;5.80;;;;;;;27.89;40.26;99725.25;5090594;28;20137;-43
2023/08/22 01:06:01;;;;;;;7.80;5.97;;;;;;;27.93;40.18;99723.50;5090672;28;20028;-43
2023/08/22 01:08:32;;;;;;;7.38;5.63;;;;;;;27.94;40.37;99718.84;5091161;28;20020;-44
2023/08/22 01:11:06;;;;;;;6.32;5.32;;;;;;;28.12;39.95;99719.63;5090748;28;20432;-44
2023/08/22 01:13:34;;;;;;;8.15;5.68;;;;;;;27.93;40.20;99719.94;5090407;28;20392;-43
2023/08/22 01:16:01;;;;;;;7.55;5.65;;;;;;;27.41;41.45;99715.16;5090512;28;20028;-43
2023/08/22 01:18:27;;;;;;;6.57;5.50;;;;;;;27.62;40.75;99718.91;5090455;28;20020;-45
2023/08/22 01:20:58;;;;;;;7.05;5.30;;;;;;;27.19;41.49;99714.09;5090629;28;20095;-45
2023/08/22 01:23:23;;;;;;;7.90;5.63;;;;;;;27.46;41.04;99715.81;5090134;28;20020;-44
2023/08/22 01:25:49;;;;;;;6.38;5.28;;;;;;;27.39;41.30;99712.72;5090404;28;20046;-45
2023/08/22 01:28:14;;;;;;;9.60;5.63;;;;;;;27.46;41.24;99724.00;5090438;28;20032;-44
2023/08/22 01:31:17;;;;;;;8.32;5.70;;;;;;;26.97;42.78;99725.84;5090217;28;20028;-43
2023/08/22 01:33:49;;;;;;;7.28;5.80;;;;;;;26.91;43.06;99727.13;5090309;28;20102;-46
2023/08/22 01:36:16;;;;;;;9.00;5.85;;;;;;;26.56;43.96;99726.88;5090350;28;20062;-44
2023/08/22 01:38:43;;;;;;;8.15;6.10;;;;;;;26.54;44.14;99729.13;5089970;28;20054;-43
2023/08/22 01:41:09;;;;;;;8.23;5.40;;;;;;;26.84;43.57;99733.00;5090332;28;20055;-43
2023/08/22 01:43:36;;;;;;;8.43;5.80;;;;;;;27.10;42.92;99733.16;5089999;28;20127;-46
2023/08/22 01:46:02;;;;;;;9.57;6.13;;;;;;;26.91;43.41;99730.66;5090128;28;20023;-47
2023/08/22 01:48:27;;;;;;;8.00;5.80;;;;;;;27.06;43.18;99737.63;5089781;28;20024;-44
2023/08/22 01:50:53;;;;;;;6.60;5.53;;;;;;;27.09;43.29;99733.47;5090046;28;20456;-46
2023/08/22 01:53:18;;;;;;;7.55;5.80;;;;;;;27.16;43.10;99735.75;5090068;28;20392;-45
2023/08/22 01:55:44;;;;;;;9.05;6.13;;;;;;;27.03;43.21;99735.53;5089976;28;20024;-45
2023/08/22 01:58:11;;;;;;;7.00;6.30;;;;;;;27.07;43.22;99739.25;5093382;28;20027;-45
2023/08/22 02:00:39;;;;;;;8.75;5.90;;;;;;;26.89;43.44;99732.09;5093868;28;20024;-42
2023/08/22 02:03:05;;;;;;;7.03;5.80;;;;;;;27.02;43.38;99735.84;5093906;28;20077;-42
2023/08/22 02:05:30;;;;;;;10.77;5.88;;;;;;;27.29;42.69;99738.41;5093246;28;20051;-45
2023/08/22 02:07:55;;;;;;;6.88;5.90;;;;;;;27.14;42.92;99736.06;5093871;28;20352;-43
2023/08/22 02:10:21;;;;;;;7.82;6.13;;;;;;;27.00;43.13;99729.91;5093699;28;20428;-44
2023/08/22 02:12:46;;;;;;;7.13;5.55;;;;;;;27.07;43.01;99724.78;5093414;28;20440;-44
2023/08/22 02:15:12;;;;;;;7.45;5.70;;;;;;;27.18;42.94;99726.13;5093719;28;20020;-43
2023/08/22 02:17:38;;;;;;;6.45;5.82;;;;;;;27.01;43.51;99726.03;5093556;28;20024;-44
2023/08/22 02:20:05;;;;;;;7.05;5.60;;;;;;;27.10;43.10;99722.22;5093484;28;20036;-45
2023/08/22 02:22:30;;;;;;;7.20;5.57;;;;;;;27.25;42.72;99718.31;5093511;28;20499;-45
2023/08/22 02:24:56;;;;;;;6.07;5.28;;;;;;;27.49;42.12;99725.28;5093463;28;20363;-46
2023/08/22 02:27:21;;;;;;;7.57;5.75;;;;;;;27.61;42.07;99720.03;5093402;28;20024;-43
2023/08/22 02:29:47;;;;;;;9.82;5.53;;;;;;;27.68;41.76;99716.81;5093315;28;20123;-43
2023/08/22 02:32:12;;;;;;;8.05;5.70;;;;;;;27.59;41.85;99705.88;5093355;28;20020;-45
2023/08/22 02:34:38;;;;;;;8.15;5.28;;;;;;;27.80;41.57;99719.75;5093139;28;20027;-47
2023/08/22 02:37:03;;;;;;;6.72;5.88;;;;;;;27.85;41.58;99721.50;5093490;28;20031;-44
2023/08/22 02:39:29;;;;;;;6.43;5.57;;;;;;;27.68;41.95;99723.09;5093132;28;20044;-44
2023/08/22 02:41:54;;;;;;;6.75;5.57;;;;;;;27.62;42.15;99727.09;5092826;28;20035;-44
2023/08/22 02:44:20;;;;;;;8.13;5.28;;;;;;;27.41;42.65;99723.34;5092815;28;20055;-42
2023/08/22 02:46:45;;;;;;;6.88;5.68;;;;;;;27.51;42.43;99731.25;5093042;28;20111;-43
2023/08/22 02:49:11;;;;;;;7.82;5.70;;;;;;;27.62;42.27;99732.56;5093031;28;20028;-45
2023/08/22 02:51:36;;;;;;;9.75;5.57;;;;;;;27.64;42.07;99729.50;5093152;28;20404;-42
2023/08/22 02:54:02;;;;;;;7.95;5.78;;;;;;;27.69;41.91;99730.16;5093364;28;20020;-43
2023/08/22 02:56:27;;;;;;;8.15;5.80;;;;;;;27.58;42.09;99734.31;5092772;28;20533;-45
2023/08/22 02:58:53;;;;;;;7.55;5.75;;;;;;;27.58;42.10;99731.59;5092531;28;20028;-44
2023/08/22 03:01:18;;;;;;;6.47;5.55;;;;;;;27.66;41.63;99730.00;5092641;28;20028;-43
2023/08/22 03:03:43;;;;;;;7.22;5.65;;;;;;;27.62;41.91;99738.03;5092533;28;20097;-44
2023/08/22 03:06:09;;;;;;;7.18;5.70;;;;;;;27.64;41.92;99740.44;5092575;28;20059;-43
2023/08/22 03:08:34;;;;;;;9.10;5.60;;;;;;;27.62;41.80;99745.44;5091334;28;20020;-44
2023/08/22 03:11:01;;;;;;;9.82;5.57;;;;;;;27.62;41.55;99739.97;5092325;28;20357;-43
2023/08/22 03:13:28;;;;;;;6.68;5.30;;;;;;;27.61;41.62;99739.16;5092621;28;20055;-45
2023/08/22 03:15:54;;;;;;;6.97;5.63;;;;;;;27.66;41.41;99751.88;5092507;28;20024;-46
2023/08/22 03:18:19;;;;;;;6.82;5.32;;;;;;;27.55;41.62;99745.06;5092184;28;20039;-43
2023/08/22 03:20:46;;;;;;;6.18;5.45;;;;;;;27.61;41.37;99755.56;5092006;28;20023;-44
2023/08/22 03:23:11;;;;;;;7.65;5.63;;;;;;;27.41;42.00;99748.72;5092138;28;20028;-44
2023/08/22 03:25:37;;;;;;;8.52;5.82;;;;;;;27.44;41.94;99756.31;5092020;28;20035;-44
2023/08/22 03:28:02;;;;;;;8.30;5.95;;;;;;;27.42;42.09;99753.09;5092363;28;20063;-46
2023/08/22 03:30:28;;;;;;;6.78;5.88;;;;;;;27.46;42.07;99756.00;5092189;28;20028;-46
2023/08/22 03:32:53;;;;;;;7.05;5.57;;;;;;;27.46;42.08;99756.00;5092186;28;20100;-44
2023/08/22 03:35:19;;;;;;;9.63;5.90;;;;;;;27.51;42.09;99753.09;5092256;28;20081;-45
2023/08/22 03:37:44;;;;;;;7.78;5.82;;;;;;;27.47;42.33;99754.84;5091854;28;20025;-43
2023/08/22 03:40:10;;;;;;;7.25;6.10;;;;;;;27.30;42.87;99750.97;5091841;28;20040;-43
2023/08/22 03:42:35;;;;;;;10.43;5.93;;;;;;;27.27;42.94;99757.03;5091637;28;20024;-43
2023/08/22 03:45:01;;;;;;;9.20;6.10;;;;;;;27.02;43.56;99754.97;5091867;28;20110;-42
2023/08/22 03:47:27;;;;;;;7.03;6.10;;;;;;;27.22;43.02;99759.06;5091704;28;20016;-42
2023/08/22 03:49:52;;;;;;;9.73;5.90;;;;;;;27.25;42.95;99756.56;5091527;28;20138;-41
2023/08/22 03:52:18;;;;;;;6.40;5.60;;;;;;;27.33;42.77;99760.44;5091908;28;20095;-43
2023/08/22 03:54:43;;;;;;;9.82;5.47;;;;;;;27.11;43.34;99764.81;5091996;28;20082;-44
2023/08/22 03:57:09;;;;;;;7.72;5.93;;;;;;;27.24;42.92;99756.81;5091498;28;20432;-42
2023/08/22 03:59:34;;;;;;;6.75;5.40;;;;;;;27.22;43.21;99772.72;5091191;28;20020;-43
2023/08/22 04:01:59;;;;;;;8.27;5.82;;;;;;;27.24;43.35;99765.81;5091504;28;20027;-44
2023/08/22 04:04:25;;;;;;;7.80;6.45;;;;;;;27.20;43.53;99775.78;5092143;28;20080;-45
2023/08/22 04:06:50;;;;;;;9.05;5.95;;;;;;;27.56;42.91;99777.56;5091799;28;20024;-43
2023/08/22 04:09:16;;;;;;;7.95;5.57;;;;;;;27.79;42.21;99777.47;5091733;28;20022;-41
2023/08/22 04:11:43;;;;;;;9.25;6.30;;;;;;;27.94;41.89;99771.56;5091467;28;20043;-45
2023/08/22 04:14:08;;;;;;;12.20;6.55;;;;;;;28.13;41.70;99768.56;5091472;28;20024;-45
2023/08/22 04:16:34;;;;;;;8.52;6.30;;;;;;;28.32;41.50;99764.72;5091487;28;20020;-42
2023/08/22 04:18:59;;;;;;;7.88;5.97;;;;;;;28.63;41.02;99772.75;5090984;28;20027;-43
2023/08/22 04:21:25;;;;;;;8.02;5.55;;;;;;;28.82;40.29;99775.16;5091433;28;20097;-45
2023/08/22 04:23:50;;;;;;;9.27;5.90;;;;;;;28.50;40.38;99779.97;5091308;28;20023;-43
2023/08/22 04:26:15;;;;;;;8.13;5.72;;;;;;;28.47;40.54;99781.44;5091376;28;20038;-44
2023/08/22 04:28:41;;;;;;;11.10;5.93;;;;;;;28.58;40.20;99786.63;5091233;28;20055;-42
2023/08/22 04:31:06;;;;;;;10.20;5.70;;;;;;;29.11;39.65;99798.28;5091100;28;20028;-44
2023/08/22 04:33:32;;;;;;;6.40;5.28;;;;;;;29.44;39.19;99785.63;5091137;28;20044;-43
2023/08/22 04:35:57;;;;;;;8.23;5.57;;;;;;;29.81;38.21;99794.16;5091373;28;20503;-42
2023/08/22 04:38:23;;;;;;;8.73;5.40;;;;;;;29.68;38.51;99794.38;5090964;28;20048;-44
2023/08/22 04:40:48;;;;;;;7.80;5.65;;;;;;;29.93;37.68;99798.16;5091079;28;20100;-45
2023/08/22 04:43:13;;;;;;;7.75;5.45;;;;;;;30.38;36.97;99803.81;5090888;28;20499;-41
2023/08/22 04:45:39;;;;;;;7.05;5.60;;;;;;;30.73;36.77;99805.47;5090976;28;20020;-42
2023/08/22 04:48:05;;;;;;;9.07;7.22;;;;;;;31.16;36.00;99798.78;5090788;28;20117;-43
2023/08/22 04:50:30;;;;;;;12.82;7.03;;;;;;;31.53;35.51;99796.13;5091016;28;20034;-42
2023/08/22 04:52:56;;;;;;;10.95;5.80;;;;;;;31.81;35.02;99804.44;5091201;28;20016;-42
2023/08/22 04:55:22;;;;;;;8.15;5.90;;;;;;;31.81;34.81;99800.91;5090871;28;20077;-43
2023/08/22 04:57:47;;;;;;;8.13;5.78;;;;;;;31.39;35.60;99804.63;5090909;28;20032;-43
2023/08/22 05:00:13;;;;;;;9.48;5.30;;;;;;;31.60;35.41;99809.28;5090580;28;20031;-46
2023/08/22 05:02:39;;;;;;;11.00;6.30;;;;;;;31.57;35.39;99813.53;5090607;28;20043;-44
2023/08/22 05:05:06;;;;;;;10.50;5.60;;;;;;;31.14;36.10;99810.09;5091101;28;20385;-43
2023/08/22 05:07:32;;;;;;;9.55;6.00;;;;;;;31.31;35.97;99809.09;5090656;28;20024;-45
2023/08/22 05:09:57;;;;;;;13.90;6.10;;;;;;;31.74;35.16;99807.00;5090580;28;20498;-47
2023/08/22 05:12:23;;;;;;;8.52;5.47;;;;;;;32.22;34.21;99808.09;5090410;28;20107;-43
2023/08/22 05:14:48;;;;;;;11.75;5.88;;;;;;;32.37;34.04;99814.84;5090506;28;20085;-47
2023/08/22 05:17:14;;;;;;;12.38;5.60;;;;;;;32.47;33.79;99802.53;5090498;28;20024;-43
2023/08/22 05:19:40;;;;;;;9.80;5.78;;;;;;;32.81;33.15;99808.63;5090703;28;20024;-43
2023/08/22 05:22:06;;;;;;;12.52;5.53;;;;;;;32.98;33.18;99810.25;5090936;28;20024;-43
2023/08/22 05:24:31;;;;;;;8.65;5.65;;;;;;;32.98;32.75;99805.53;5090687;28;20514;-43
2023/08/22 05:26:57;;;;;;;10.23;5.90;;;;;;;32.86;33.21;99805.59;5090612;28;20172;-44
2023/08/22 05:29:23;;;;;;;21.08;6.10;;;;;;;33.05;32.76;99808.47;5090553;28;20031;-44
2023/08/22 05:31:48;;;;;;;9.20;5.68;;;;;;;33.50;32.02;99810.03;5091705;28;20020;-43
2023/08/22 05:34:14;;;;;;;8.45;5.25;;;;;;;33.98;31.39;99809.19;5094721;28;20407;-43
2023/08/22 05:36:39;;;;;;;6.93;5.63;;;;;;;34.52;31.11;99805.66;5094377;28;20056;-43
2023/08/22 05:39:06;;;;;;;8.65;5.22;;;;;;;34.90;30.26;99808.75;5094505;28;20048;-42
2023/08/22 05:41:32;;;;;;;11.60;5.47;;;;;;;35.23;30.04;99816.50;5094062;28;20019;-46
2023/08/22 05:43:57;;;;;;;10.20;5.55;;;;;;;35.28;29.35;99812.63;5094247;28;20028;-42
2023/08/22 05:46:23;;;;;;;11.15;5.28;;;;;;;35.50;29.34;99806.28;5094104;28;20020;-44
2023/08/22 05:48:48;;;;;;;9.63;5.25;;;;;;;35.60;29.00;99807.63;5094197;28;20062;-44
2023/08/22 05:51:15;;;;;;;10.63;5.55;;;;;;;35.84;28.83;99813.94;5094211;28;20012;-43
2023/08/22 05:53:40;;;;;;;8.30;5.30;;;;;;;35.88;28.67;99810.03;5093910;28;20589;-44
2023/08/22 05:56:06;;;;;;;9.32;5.05;;;;;;;36.14;28.41;99809.22;5094260;28;20024;-45
2023/08/22 05:58:31;;;;;;;12.25;5.60;;;;;;;36.31;28.02;99807.09;5094277;28;20024;-43
2023/08/22 06:00:57;;;;;;;11.48;5.00;;;;;;;36.66;27.97;99811.50;5093758;28;20031;-43
2023/08/22 06:03:22;;;;;;;9.57;5.10;;;;;;;37.11;27.29;99799.28;5094130;28;20027;-44
2023/08/22 06:05:47;;;;;;;7.82;5.35;;;;;;;37.64;26.91;99805.72;5093446;28;20016;-43
2023/08/22 06:08:13;;;;;;;8.20;5.32;;;;;;;38.18;26.08;99806.06;5093654;28;20023;-44
2023/08/22 06:10:38;;;;;;;8.05;5.45;;;;;;;38.55;26.07;99793.94;5093869;28;20460;-43
2023/08/22 06:13:04;;;;;;;12.00;5.60;;;;;;;39.02;25.30;99808.75;5093918;28;20067;-44
2023/08/22 06:15:29;;;;;;;9.93;5.30;;;;;;;39.29;25.08;99800.81;5093728;28;20019;-42
2023/08/22 06:17:54;;;;;;;9.65;5.50;;;;;;;39.43;24.42;99808.38;5093712;28;20016;-44
2023/08/22 06:20:20;;;;;;;9.70;5.70;;;;;;;38.91;24.66;99809.50;5093984;28;20016;-45
2023/08/22 06:22:45;;;;;;;10.15;5.90;;;;;;;39.12;24.81;99807.19;5093618;28;20055;-44
2023/08/22 06:25:11;;;;;;;10.65;5.10;;;;;;;38.81;24.93;99806.72;5093692;28;20024;-46
2023/08/22 06:27:36;;;;;;;9.45;4.93;;;;;;;38.95;24.54;99806.72;5093390;28;20050;-47
2023/08/22 06:30:02;;;;;;;6.80;4.93;;;;;;;39.29;24.23;99809.97;5093228;28;20089;-45
2023/08/22 06:32:28;;;;;;;10.02;4.90;;;;;;;39.50;24.00;99805.63;5093072;28;20417;-45
2023/08/22 06:34:59;;;;;;;6.88;4.90;;;;;;;40.05;23.53;99802.34;5092884;28;20030;-42
2023/08/22 06:37:24;;;;;;;9.40;4.72;;;;;;;40.58;22.65;99806.13;5092890;28;20471;-46
2023/08/22 06:39:50;;;;;;;7.13;4.97;;;;;;;40.18;22.70;99794.34;5092776;28;20056;-47
2023/08/22 06:42:15;;;;;;;8.45;5.00;;;;;;;39.82;23.17;99802.00;5092509;28;20028;-42
2023/08/22 06:44:41;;;;;;;6.85;5.30;;;;;;;40.01;23.44;99798.78;5092553;28;20032;-41
2023/08/22 06:47:06;;;;;;;8.00;5.05;;;;;;;39.27;23.86;99797.66;5092660;28;20490;-42
2023/08/22 06:49:32;;;;;;;8.38;4.70;;;;;;;39.93;23.04;99800.00;5092610;28;20043;-44
2023/08/22 06:51:57;;;;;;;8.68;5.10;;;;;;;39.87;22.77;99796.00;5092432;28;20095;-42
2023/08/22 06:54:23;;;;;;;11.75;5.32;;;;;;;40.14;22.82;99796.34;5092068;28;20032;-45
2023/08/22 06:56:49;;;;;;;9.00;4.88;;;;;;;39.32;23.47;99805.59;5092345;28;20058;-46
2023/08/22 06:59:16;;;;;;;5.50;4.90;;;;;;;39.54;23.49;99808.41;5092046;28;20050;-45
2023/08/22 07:01:41;;;;;;;8.27;5.00;;;;;;;39.64;23.33;99808.41;5092429;28;20364;-46
2023/08/22 07:04:07;;;;;;;6.57;4.90;;;;;;;39.64;23.23;99799.22;5092592;28;20024;-44
2023/08/22 07:06:32;;;;;;;6.20;5.00;;;;;;;39.59;23.16;99797.66;5092603;28;20040;-43
2023/08/22 07:08:58;;;;;;;7.47;4.53;;;;;;;39.54;23.91;99806.41;5092341;28;20051;-43
2023/08/22 07:11:23;;;;;;;6.72;4.80;;;;;;;39.91;23.51;99782.09;5092417;28;20027;-44
2023/08/22 07:13:50;;;;;;;6.75;4.80;;;;;;;39.20;23.76;99795.66;5091942;28;20012;-46
2023/08/22 07:16:16;;;;;;;7.35;4.63;;;;;;;39.93;23.58;99788.88;5091809;28;20047;-42
2023/08/22 07:18:42;;;;;;;10.13;4.80;;;;;;;40.69;22.87;99794.13;5092473;28;20036;-45
2023/08/22 07:21:07;;;;;;;6.25;4.65;;;;;;;40.65;22.67;99799.72;5092028;28;20019;-44
2023/08/22 07:23:33;;;;;;;6.82;5.00;;;;;;;41.06;22.00;99787.91;5092074;28;20122;-44
2023/08/22 07:25:58;;;;;;;5.75;4.50;;;;;;;40.91;22.17;99794.81;5091824;28;20066;-45
2023/08/22 07:28:24;;;;;;;7.40;4.60;;;;;;;41.61;21.62;99795.44;5091970;28;20081;-47
2023/08/22 07:30:49;;;;;;;7.05;4.95;;;;;;;42.07;21.14;99793.41;5091688;28;20393;-47
2023/08/22 07:33:15;;;;;;;8.30;4.88;;;;;;;41.83;21.35;99789.63;5092059;28;20034;-46
2023/08/22 07:35:44;;;;;;;8.82;4.75;;;;;;;41.79;21.41;99792.50;5092154;28;20032;-45
2023/08/22 07:38:10;;;;;;;7.00;4.63;;;;;;;42.16;20.86;99784.50;5091873;28;20066;-44
2023/08/22 07:40:40;;;;;;;6.13;4.70;;;;;;;42.07;20.90;99787.81;5091806;28;20051;-44
2023/08/22 07:43:06;;;;;;;8.65;4.70;;;;;;;42.54;20.80;99787.25;5092175;28;20028;-45
2023/08/22 07:45:31;;;;;;;7.20;5.10;;;;;;;42.67;20.14;99779.03;5091859;28;20024;-45
2023/08/22 07:47:57;;;;;;;6.55;5.15;;;;;;;43.44;19.46;99785.88;5092069;28;20120;-49
2023/08/22 07:50:22;;;;;;;8.32;5.00;;;;;;;43.84;19.21;99786.72;5091659;28;20461;-46
2023/08/22 07:52:47;;;;;;;7.20;4.90;;;;;;;43.51;19.40;99786.53;5091784;28;20377;-45
2023/08/22 07:55:13;;;;;;;7.47;5.20;;;;;;;43.07;19.92;99784.84;5090725;28;20457;-45
2023/08/22 07:57:38;;;;;;;5.75;4.53;;;;;;;43.56;19.16;99790.03;5091110;28;20024;-43
2023/08/22 08:00:09;;;;;;;6.55;4.43;;;;;;;43.52;19.38;99784.50;5091541;28;20020;-45
2023/08/22 08:02:35;;;;;;;6.68;4.47;;;;;;;43.62;18.86;99782.72;5091548;28;20020;-45
2023/08/22 08:05:00;;;;;;;5.32;4.45;;;;;;;43.89;18.68;99788.25;5090972;28;20057;-44
2023/08/22 08:07:26;;;;;;;8.45;5.82;;;;;;;43.98;18.32;99770.84;5091274;28;20012;-45
2023/08/22 08:09:51;;;;;;;6.00;4.90;;;;;;;44.19;18.80;99766.84;5091522;28;20124;-46
2023/08/22 08:12:16;;;;;;;7.97;4.57;;;;;;;43.87;18.20;99774.66;5091099;28;20017;-48
2023/08/22 08:14:42;;;;;;;6.20;4.38;;;;;;;43.99;18.06;99778.81;5091562;28;20099;-43
2023/08/22 08:17:08;;;;;;;6.90;4.10;;;;;;;44.76;17.97;99773.97;5091002;28;20483;-43
2023/08/22 08:19:33;;;;;;;7.20;4.25;;;;;;;45.07;17.63;99765.25;5091176;28;20031;-44
2023/08/22 08:21:58;;;;;;;6.72;4.10;;;;;;;44.44;18.35;99769.91;5091088;28;20437;-45
2023/08/22 08:24:24;;;;;;;6.03;3.85;;;;;;;44.42;17.41;99766.75;5091002;28;20020;-47
2023/08/22 08:26:49;;;;;;;5.30;4.20;;;;;;;43.40;18.48;99766.31;5090840;28;20028;-49
2023/08/22 08:29:17;;;;;;;7.22;4.30;;;;;;;42.14;19.09;99764.59;5090730;28;20028;-48
2023/08/22 08:31:43;;;;;;;;;;;;;;;42.07;19.51;99767.47;5091540;28;20031;-44
2023/08/22 08:34:08;;;;;;;6.00;4.38;;;;;;;42.52;19.82;99768.09;5090848;28;19998;-45
2023/08/22 08:36:33;;;;;;;5.35;3.80;;;;;;;42.94;19.20;99765.09;5091098;28;20446;-44
2023/08/22 08:38:59;;;;;;;5.28;4.00;;;;;;;43.61;18.41;99772.75;5090815;28;20048;-46
2023/08/22 08:41:25;;;;;;;4.78;3.70;;;;;;;42.96;18.57;99771.84;5090431;28;20031;-45
2023/08/22 08:43:50;;;;;;;4.70;3.85;;;;;;;42.06;19.49;99757.47;5090535;28;20024;-44
2023/08/22 08:46:16;;;;;;;7.03;4.20;;;;;;;41.26;19.90;99767.84;5090845;28;20068;-43
2023/08/22 08:48:44;;;;;;;5.32;3.97;;;;;;;42.30;19.63;99772.34;5090976;28;20530;-44
2023/08/22 08:51:10;;;;;;;7.22;3.92;;;;;;;43.11;18.44;99761.19;5090771;28;20066;-43
2023/08/22 08:53:37;;;;;;;4.85;3.72;;;;;;;43.14;18.41;99767.94;5090349;28;20028;-44
2023/08/22 08:56:04;;;;;;;6.30;3.93;;;;;;;43.05;18.96;99762.91;5072033;28;20051;-45
2023/08/22 08:58:30;;;;;;;5.47;4.03;;;;;;;42.16;19.32;99762.16;5090322;28;20258;-44
2023/08/22 09:00:59;;;;;;;6.07;3.70;;;;;;;41.84;19.45;99766.09;5090332;28;20404;-45
2023/08/22 09:03:24;;;;;;;5.55;3.90;;;;;;;41.55;20.42;99765.59;5090439;28;20031;-44
2023/08/22 09:05:50;;;;;;;6.50;4.00;;;;;;;41.40;20.34;99760.13;5090154;28;20028;-44
2023/08/22 09:08:20;;;;;;;6.15;4.35;;;;;;;41.10;20.53;99755.19;5090536;28;20024;-44
2023/08/22 09:10:53;;;;;;;5.82;4.18;;;;;;;40.62;20.17;99764.28;5090267;28;20476;-44
2023/08/22 09:13:26;;;;;;;8.52;3.97;;;;;;;40.26;21.33;99751.31;5090157;28;20016;-45
2023/08/22 09:15:58;;;;;;;5.75;3.88;;;;;;;41.35;20.19;99743.03;5090207;28;20016;-44
2023/08/22 09:18:23;;;;;;;8.30;4.13;;;;;;;42.57;19.74;99750.84;5090346;28;20094;-44
2023/08/22 09:20:48;;;;;;;4.82;3.97;;;;;;;42.15;19.27;99738.22;5090046;28;20103;-45
2023/08/22 09:23:42;;;;;;;8.88;4.18;;;;;;;41.60;19.96;99740.00;5089672;28;20483;-45
2023/08/22 09:26:08;;;;;;;5.75;4.13;;;;;;;41.68;20.09;99737.94;5085799;28;20362;-43
2023/08/22 09:28:41;;;;;;;5.82;4.00;;;;;;;42.00;19.97;99727.19;5090022;28;20035;-45
2023/08/22 09:31:06;;;;;;;6.32;3.90;;;;;;;42.58;19.91;99727.25;5089959;28;20028;-44
2023/08/22 09:33:45;;;;;;;7.20;4.20;;;;;;;41.46;20.55;99727.00;5089828;28;20120;-44
2023/08/22 09:36:11;;;;;;;8.00;3.85;;;;;;;41.70;20.01;99727.16;5089887;28;20055;-46
2023/08/22 09:38:55;;;;;;;4.38;3.88;;;;;;;40.80;20.84;99722.38;5089765;28;20088;-45
2023/08/22 09:41:25;;;;;;;7.20;4.22;;;;;;;40.64;20.46;99720.06;5089929;28;20028;-44
2023/08/22 09:44:00;;;;;;;7.55;4.18;;;;;;;40.13;21.01;99711.19;5089973;28;20024;-43
2023/08/22 09:46:27;;;;;;;7.45;4.10;;;;;;;40.49;21.06;99716.56;5089981;28;20043;-45
2023/08/22 09:48:55;;;;;;;7.38;3.72;;;;;;;40.54;21.17;99707.00;5090314;28;20078;-44
2023/08/22 09:51:21;;;;;;;5.88;4.13;;;;;;;41.39;20.71;99704.72;5089987;28;20020;-44
2023/08/22 09:53:50;;;;;;;5.53;4.20;;;;;;;40.94;20.87;99705.53;5089867;28;20038;-43
2023/08/22 09:56:17;;;;;;;7.22;4.28;;;;;;;40.15;21.48;99702.41;5089778;28;20028;-45
2023/08/22 09:58:43;;;;;;;4.40;4.00;;;;;;;39.75;21.47;99704.53;5089534;28;20031;-45
2023/08/22 10:01:09;;;;;;;9.70;4.38;;;;;;;39.40;22.15;99692.28;5071323;28;20035;-43
2023/08/22 10:03:35;;;;;;;6.95;4.22;;;;;;;39.51;22.01;99689.50;5090073;28;20032;-45
2023/08/22 10:06:01;;;;;;;5.45;4.10;;;;;;;38.43;23.67;99695.03;5089735;28;20024;-46
2023/08/22 10:08:26;;;;;;;6.20;4.20;;;;;;;38.94;22.96;99699.47;5089769;28;20059;-44
2023/08/22 10:10:52;;;;;;;6.18;4.18;;;;;;;39.23;22.31;99691.91;5089161;28;20414;-43
2023/08/22 10:13:21;;;;;;;4.80;4.30;;;;;;;39.79;21.99;99694.97;5089471;28;20032;-45
2023/08/22 10:15:47;;;;;;;5.63;4.05;;;;;;;39.86;21.82;99705.31;5089222;28;20119;-44
2023/08/22 10:18:13;;;;;;;9.07;4.28;;;;;;;39.01;22.38;99695.91;5091241;28;20511;-43
2023/08/22 10:20:40;;;;;;;6.70;4.20;;;;;;;38.43;22.94;99690.25;5093205;28;20046;-47
2023/08/22 10:23:07;;;;;;;5.40;4.13;;;;;;;38.63;23.16;99685.16;5093058;28;20028;-45
2023/08/22 10:25:47;;;;;;;4.93;4.30;;;;;;;38.20;23.29;99685.03;5093041;28;20036;-43
2023/08/22 10:28:13;;;;;;;6.10;4.25;;;;;;;39.08;22.36;99679.22;5093735;28;20506;-44
2023/08/22 10:31:04;;;;;;;5.22;4.40;;;;;;;38.79;22.72;99676.44;5093506;28;20106;-45
2023/08/22 10:33:29;;;;;;;6.63;4.35;;;;;;;38.40;23.75;99671.56;5092822;28;20024;-43
2023/08/22 10:36:03;;;;;;;5.68;4.15;;;;;;;39.47;22.93;99672.81;5092954;28;20038;-46
2023/08/22 10:38:28;;;;;;;7.13;4.35;;;;;;;39.80;22.02;99665.16;5092543;28;20060;-44
2023/08/22 10:40:54;;;;;;;7.55;4.57;;;;;;;40.15;21.86;99668.97;5092634;28;20027;-44
2023/08/22 10:43:38;;;;;;;5.88;4.32;;;;;;;40.41;21.84;99671.22;5092655;28;20516;-42
2023/08/22 10:46:03;;;;;;;6.53;4.55;;;;;;;40.01;22.19;99667.06;5092812;28;20050;-47
2023/08/22 10:48:28;;;;;;;6.43;4.30;;;;;;;39.68;22.31;99656.06;5092614;28;20429;-43
2023/08/22 10:51:06;;;;;;;7.57;4.53;;;;;;;39.60;21.79;99673.97;5092561;28;20032;-46
2023/08/22 10:53:43;;;;;;;7.97;4.35;;;;;;;39.69;21.94;99663.19;5092815;28;20042;-46
2023/08/22 10:56:23;;;;;;;5.93;4.38;;;;;;;39.64;21.91;99660.84;5092496;28;20097;-43
2023/08/22 10:58:59;;;;;;;6.03;4.35;;;;;;;39.67;22.42;99646.09;5092485;28;20058;-45
2023/08/22 11:01:25;;;;;;;7.35;4.15;;;;;;;39.49;21.72;99650.97;5092550;28;20031;-43
2023/08/22 11:03:51;;;;;;;5.20;4.30;;;;;;;39.24;22.79;99656.53;5092473;28;20027;-43
2023/08/22 11:06:22;;;;;;;7.20;4.30;;;;;;;39.52;22.50;99650.13;5091981;28;20035;-43
2023/08/22 11:08:47;;;;;;;4.95;4.50;;;;;;;40.21;21.42;99645.88;5091842;28;20061;-46
2023/08/22 11:11:16;;;;;;;5.32;4.20;;;;;;;41.13;20.42;99650.38;5092177;28;20048;-45
2023/08/22 11:13:43;;;;;;;6.93;4.57;;;;;;;40.52;21.49;99651.66;5091818;28;20360;-44
2023/08/22 11:16:14;;;;;;;5.75;4.60;;;;;;;39.90;21.71;99655.19;5092114;28;20028;-45
2023/08/22 11:18:40;;;;;;;4.43;4.03;;;;;;;40.59;20.99;99637.63;5092218;28;20028;-43
2023/08/22 11:21:06;;;;;;;5.03;4.45;;;;;;;41.25;20.41;99644.28;5091879;28;20024;-44
2023/08/22 11:23:33;;;;;;;6.22;4.30;;;;;;;40.04;21.36;99661.50;5091953;28;20119;-45
2023/08/22 11:26:00;;;;;;;6.60;4.80;;;;;;;39.07;22.53;99649.81;5091555;28;20139;-44
2023/08/22 11:28:33;;;;;;;5.15;4.47;;;;;;;38.56;22.77;99653.75;5091220;28;20020;-45